createdAt,value
2017-04-20T00:00:15.335Z,4.42
2017-04-20T00:00:55.911Z,4.4
2017-04-20T00:01:36.505Z,4.42
2017-04-20T00:02:17.087Z,4.41
2017-04-20T00:02:57.680Z,4.44
2017-04-20T00:03:38.278Z,4.42
2017-04-20T00:04:18.886Z,4.4
2017-04-20T00:04:59.488Z,4.41
2017-04-20T00:05:40.091Z,4.41
2017-04-20T00:06:20.692Z,4.42
2017-04-20T00:07:01.284Z,4.42
2017-04-20T00:07:41.904Z,4.42
2017-04-20T00:08:22.504Z,4.4
2017-04-20T00:09:03.099Z,4.41
2017-04-20T00:09:43.682Z,4.4
2017-04-20T00:10:24.285Z,4.42
2017-04-20T00:11:04.862Z,4.45
2017-04-20T00:11:45.450Z,4.49
2017-04-20T00:12:26.052Z,4.48
2017-04-20T00:13:06.612Z,4.5
2017-04-20T00:13:47.244Z,4.45
2017-04-20T00:14:27.804Z,4.42
2017-04-20T00:15:08.404Z,4.4
2017-04-20T00:15:48.979Z,4.4
2017-04-20T00:16:29.552Z,4.41
2017-04-20T00:17:10.148Z,4.42
2017-04-20T00:17:50.754Z,4.45
2017-04-20T00:18:31.339Z,4.45
2017-04-20T00:19:14.856Z,4.38
2017-04-20T00:19:55.910Z,4.41
2017-04-20T00:20:36.576Z,4.45
2017-04-20T00:21:17.190Z,4.37
2017-04-20T00:21:57.758Z,4.34
2017-04-20T00:22:38.358Z,4.35
2017-04-20T00:23:18.925Z,4.35
2017-04-20T00:23:59.525Z,4.32
2017-04-20T00:24:40.069Z,4.31
2017-04-20T00:25:20.648Z,4.31
2017-04-20T00:26:01.328Z,4.26
2017-04-20T00:26:41.916Z,4.24
2017-04-20T00:27:22.478Z,4.32
2017-04-20T00:28:03.082Z,4.35
2017-04-20T00:28:43.785Z,4.24
2017-04-20T00:29:24.393Z,4.31
2017-04-20T00:30:04.973Z,4.23
2017-04-20T00:30:45.556Z,4.32
2017-04-20T00:31:26.133Z,4.24
2017-04-20T00:32:06.792Z,4.2
2017-04-20T00:32:47.373Z,4.28
2017-04-20T00:33:27.958Z,4.24
2017-04-20T00:34:08.545Z,4.23
2017-04-20T00:34:49.121Z,4.24
2017-04-20T00:35:29.698Z,4.24
2017-04-20T00:36:10.347Z,4.22
2017-04-20T00:36:50.927Z,4.17
2017-04-20T00:37:31.531Z,4.06
2017-04-20T00:38:12.131Z,4.08
2017-04-20T00:38:52.710Z,4.06
2017-04-20T00:39:33.286Z,4.19
2017-04-20T00:40:13.891Z,4.2
2017-04-20T00:40:54.483Z,4.12
2017-04-20T00:41:35.045Z,4.22
2017-04-20T00:42:15.632Z,4.17
2017-04-20T00:42:56.224Z,4.23
2017-04-20T00:43:36.801Z,4.2
2017-04-20T00:44:17.405Z,4.05
2017-04-20T00:44:58.065Z,4.04
2017-04-20T00:45:38.715Z,4.08
2017-04-20T00:46:19.317Z,4.1
2017-04-20T00:46:59.890Z,4.04
2017-04-20T00:47:40.466Z,4.05
2017-04-20T00:48:21.090Z,4.13
2017-04-20T00:49:01.667Z,4.08
2017-04-20T00:49:42.264Z,4.12
2017-04-20T00:50:22.914Z,4.1
2017-04-20T00:51:03.512Z,4.1
2017-04-20T00:51:44.092Z,4.08
2017-04-20T00:52:24.684Z,4.06
2017-04-20T00:53:05.253Z,4.01
2017-04-20T00:53:45.901Z,4.04
2017-04-20T00:54:26.503Z,4.01
2017-04-20T00:55:07.081Z,4.05
2017-04-20T00:55:47.735Z,4.04
2017-04-20T00:56:28.289Z,4.02
2017-04-20T00:57:08.869Z,3.92
2017-04-20T00:57:49.455Z,3.96
2017-04-20T00:58:30.068Z,3.88
2017-04-20T00:59:10.678Z,3.95
2017-04-20T00:59:51.311Z,3.95
2017-04-20T01:00:31.869Z,3.88
2017-04-20T01:01:12.451Z,3.92
2017-04-20T01:01:53.074Z,3.87
2017-04-20T01:02:33.648Z,3.86
2017-04-20T01:03:14.227Z,3.88
2017-04-20T01:03:54.816Z,3.84
2017-04-20T01:04:35.430Z,3.86
2017-04-20T01:05:16.054Z,3.91
2017-04-20T01:05:56.674Z,3.87
2017-04-20T01:06:37.295Z,3.84
2017-04-20T01:07:17.884Z,3.91
2017-04-20T01:07:58.468Z,3.88
2017-04-20T01:08:39.081Z,3.96
2017-04-20T01:09:19.659Z,3.94
2017-04-20T01:10:00.239Z,3.86
2017-04-20T01:10:40.819Z,3.98
2017-04-20T01:11:21.408Z,3.94
2017-04-20T01:12:01.961Z,3.88
2017-04-20T01:12:42.547Z,3.96
2017-04-20T01:13:23.168Z,3.95
2017-04-20T01:14:03.778Z,4.01
2017-04-20T01:14:44.347Z,3.99
2017-04-20T01:15:24.915Z,3.94
2017-04-20T01:16:05.503Z,3.95
2017-04-20T01:16:46.114Z,3.98
2017-04-20T01:17:26.709Z,3.95
2017-04-20T01:18:07.297Z,3.96
2017-04-20T01:18:47.931Z,3.96
2017-04-20T01:19:28.533Z,4.02
2017-04-20T01:20:09.134Z,4.01
2017-04-20T01:20:49.704Z,3.98
2017-04-20T01:21:30.346Z,3.96
2017-04-20T01:22:10.944Z,3.98
2017-04-20T01:22:51.526Z,3.95
2017-04-20T01:23:32.107Z,3.98
2017-04-20T01:24:12.684Z,3.91
2017-04-20T01:24:53.243Z,3.99
2017-04-20T01:25:33.808Z,3.99
2017-04-20T01:26:14.380Z,3.95
2017-04-20T01:26:54.947Z,3.98
2017-04-20T01:27:35.518Z,3.96
2017-04-20T01:28:16.096Z,3.92
2017-04-20T01:28:56.707Z,3.96
2017-04-20T01:29:37.295Z,3.91
2017-04-20T01:30:17.890Z,3.94
2017-04-20T01:30:58.468Z,4.01
2017-04-20T01:31:39.044Z,3.99
2017-04-20T01:32:19.618Z,4.01
2017-04-20T01:33:00.188Z,3.94
2017-04-20T01:33:40.774Z,3.98
2017-04-20T01:34:21.451Z,3.94
2017-04-20T01:35:02.033Z,3.86
2017-04-20T01:35:42.589Z,3.83
2017-04-20T01:36:23.168Z,3.81
2017-04-20T01:37:03.747Z,3.84
2017-04-20T01:37:44.343Z,3.99
2017-04-20T01:38:24.940Z,3.92
2017-04-20T01:39:05.532Z,3.95
2017-04-20T01:39:46.190Z,3.92
2017-04-20T01:40:26.781Z,3.84
2017-04-20T01:41:07.355Z,3.94
2017-04-20T01:41:47.939Z,3.88
2017-04-20T01:42:28.523Z,3.84
2017-04-20T01:43:09.103Z,3.86
2017-04-20T01:43:49.721Z,3.88
2017-04-20T01:44:30.297Z,3.88
2017-04-20T01:45:10.922Z,3.87
2017-04-20T01:45:51.471Z,3.92
2017-04-20T01:46:32.060Z,3.87
2017-04-20T01:47:12.670Z,3.84
2017-04-20T01:47:53.276Z,3.91
2017-04-20T01:48:33.901Z,3.86
2017-04-20T01:49:14.462Z,3.91
2017-04-20T01:49:55.032Z,3.86
2017-04-20T01:50:35.590Z,3.86
2017-04-20T01:51:16.180Z,3.84
2017-04-20T01:51:56.798Z,3.87
2017-04-20T01:52:37.420Z,3.87
2017-04-20T01:53:18.014Z,3.86
2017-04-20T01:53:58.567Z,3.84
2017-04-20T01:54:39.135Z,3.87
2017-04-20T01:55:19.697Z,3.88
2017-04-20T01:56:00.276Z,3.86
2017-04-20T01:56:40.861Z,3.91
2017-04-20T01:57:21.450Z,3.87
2017-04-20T01:58:02.050Z,3.92
2017-04-20T01:58:42.616Z,3.86
2017-04-20T01:59:23.191Z,3.86
2017-04-20T02:00:03.760Z,3.91
2017-04-20T02:00:44.354Z,3.83
2017-04-20T02:01:24.943Z,3.86
2017-04-20T02:02:05.516Z,3.8
2017-04-20T02:02:46.079Z,3.83
2017-04-20T02:03:26.641Z,3.83
2017-04-20T02:04:07.213Z,3.77
2017-04-20T02:04:47.797Z,3.83
2017-04-20T02:05:28.365Z,3.84
2017-04-20T02:06:08.937Z,3.8
2017-04-20T02:06:49.519Z,3.83
2017-04-20T02:07:30.107Z,3.8
2017-04-20T02:08:10.711Z,3.81
2017-04-20T02:08:51.233Z,3.8
2017-04-20T02:09:31.815Z,3.81
2017-04-20T02:10:12.387Z,3.81
2017-04-20T02:10:52.959Z,3.78
2017-04-20T02:11:33.527Z,3.8
2017-04-20T02:12:14.122Z,3.78
2017-04-20T02:12:54.671Z,3.78
2017-04-20T02:13:35.259Z,3.81
2017-04-20T02:14:15.834Z,3.81
2017-04-20T02:14:56.428Z,3.76
2017-04-20T02:15:37.018Z,3.8
2017-04-20T02:16:17.605Z,3.78
2017-04-20T02:16:58.180Z,3.76
2017-04-20T02:17:38.737Z,3.8
2017-04-20T02:18:19.321Z,3.87
2017-04-20T02:18:59.907Z,3.8
2017-04-20T02:19:40.513Z,3.81
2017-04-20T02:20:21.055Z,3.86
2017-04-20T02:21:01.624Z,3.8
2017-04-20T02:21:42.202Z,3.78
2017-04-20T02:22:22.770Z,3.81
2017-04-20T02:23:03.340Z,3.77
2017-04-20T02:23:43.944Z,3.76
2017-04-20T02:24:24.532Z,3.76
2017-04-20T02:25:05.170Z,3.78
2017-04-20T02:25:45.776Z,3.83
2017-04-20T02:26:26.338Z,3.77
2017-04-20T02:27:06.958Z,3.74
2017-04-20T02:27:47.540Z,3.8
2017-04-20T02:28:28.156Z,3.68
2017-04-20T02:29:08.736Z,3.7
2017-04-20T02:29:49.321Z,3.77
2017-04-20T02:30:29.882Z,3.74
2017-04-20T02:31:10.468Z,3.74
2017-04-20T02:31:51.036Z,3.68
2017-04-20T02:32:31.612Z,3.78
2017-04-20T02:33:12.171Z,3.78
2017-04-20T02:33:52.741Z,3.68
2017-04-20T02:34:33.335Z,3.73
2017-04-20T02:35:13.956Z,3.7
2017-04-20T02:35:54.531Z,3.77
2017-04-20T02:36:35.109Z,3.76
2017-04-20T02:37:15.699Z,3.73
2017-04-20T02:37:56.275Z,3.69
2017-04-20T02:38:36.845Z,3.73
2017-04-20T02:39:17.412Z,3.68
2017-04-20T02:39:57.999Z,3.66
2017-04-20T02:40:38.573Z,3.6
2017-04-20T02:41:19.157Z,3.66
2017-04-20T02:41:59.711Z,3.62
2017-04-20T02:42:40.297Z,3.62
2017-04-20T02:43:20.878Z,3.59
2017-04-20T02:44:01.446Z,3.6
2017-04-20T02:44:42.013Z,3.63
2017-04-20T02:45:22.581Z,3.66
2017-04-20T02:46:03.163Z,3.63
2017-04-20T02:46:43.759Z,3.63
2017-04-20T02:47:24.309Z,3.6
2017-04-20T02:48:04.873Z,3.63
2017-04-20T02:48:45.435Z,3.55
2017-04-20T02:49:26.016Z,3.62
2017-04-20T02:50:06.592Z,3.59
2017-04-20T02:50:47.147Z,3.63
2017-04-20T02:51:27.747Z,3.5
2017-04-20T02:52:08.315Z,3.58
2017-04-20T02:52:48.907Z,3.47
2017-04-20T02:53:29.509Z,3.55
2017-04-20T02:54:10.094Z,3.53
2017-04-20T02:54:50.697Z,3.5
2017-04-20T02:55:31.295Z,3.53
2017-04-20T02:56:11.884Z,3.5
2017-04-20T02:56:52.472Z,3.51
2017-04-20T02:57:33.059Z,3.47
2017-04-20T02:58:13.619Z,3.56
2017-04-20T02:58:54.184Z,3.53
2017-04-20T02:59:34.762Z,3.51
2017-04-20T03:00:15.354Z,3.47
2017-04-20T03:00:55.955Z,3.51
2017-04-20T03:01:36.533Z,3.5
2017-04-20T03:02:17.106Z,3.51
2017-04-20T03:02:57.688Z,3.48
2017-04-20T03:03:38.265Z,3.45
2017-04-20T03:04:18.889Z,3.53
2017-04-20T03:04:59.469Z,3.48
2017-04-20T03:05:40.041Z,3.5
2017-04-20T03:06:20.621Z,3.5
2017-04-20T03:07:01.225Z,3.55
2017-04-20T03:07:41.836Z,3.5
2017-04-20T03:08:22.495Z,3.5
2017-04-20T03:09:03.111Z,3.5
2017-04-20T03:09:43.706Z,3.59
2017-04-20T03:10:24.346Z,3.59
2017-04-20T03:11:04.889Z,3.47
2017-04-20T03:11:45.459Z,3.5
2017-04-20T03:12:26.033Z,3.48
2017-04-20T03:13:06.612Z,3.56
2017-04-20T03:13:47.202Z,3.55
2017-04-20T03:14:27.794Z,3.5
2017-04-20T03:15:08.397Z,3.55
2017-04-20T03:15:49.001Z,3.5
2017-04-20T03:16:29.596Z,3.5
2017-04-20T03:17:10.188Z,3.56
2017-04-20T03:17:50.794Z,3.55
2017-04-20T03:18:31.384Z,3.53
2017-04-20T03:19:11.968Z,3.56
2017-04-20T03:19:52.611Z,3.5
2017-04-20T03:20:33.198Z,3.59
2017-04-20T03:21:13.771Z,3.55
2017-04-20T03:21:54.372Z,3.53
2017-04-20T03:22:34.962Z,3.5
2017-04-20T03:23:15.557Z,3.51
2017-04-20T03:23:56.150Z,3.47
2017-04-20T03:24:36.717Z,3.45
2017-04-20T03:25:17.335Z,3.4
2017-04-20T03:25:57.913Z,3.4
2017-04-20T03:26:38.482Z,3.42
2017-04-20T03:27:19.080Z,3.4
2017-04-20T03:27:59.653Z,3.36
2017-04-20T03:28:40.237Z,3.37
2017-04-20T03:29:20.880Z,3.29
2017-04-20T03:30:01.455Z,3.28
2017-04-20T03:30:42.093Z,3.29
2017-04-20T03:31:22.735Z,3.4
2017-04-20T03:32:03.311Z,3.36
2017-04-20T03:32:43.938Z,3.34
2017-04-20T03:33:24.525Z,3.28
2017-04-20T03:34:05.101Z,3.29
2017-04-20T03:34:45.696Z,3.19
2017-04-20T03:35:26.259Z,3.16
2017-04-20T03:36:06.823Z,3.21
2017-04-20T03:36:47.403Z,3.19
2017-04-20T03:37:28.019Z,3.22
2017-04-20T03:38:08.641Z,3.18
2017-04-20T03:38:49.199Z,3.1
2017-04-20T03:39:29.802Z,3.21
2017-04-20T03:40:10.392Z,3.16
2017-04-20T03:40:50.965Z,3.22
2017-04-20T03:41:31.556Z,3.11
2017-04-20T03:42:12.157Z,3.13
2017-04-20T03:42:52.721Z,3.04
2017-04-20T03:43:33.295Z,3.13
2017-04-20T03:44:13.872Z,3.04
2017-04-20T03:44:54.441Z,3.08
2017-04-20T03:45:35.040Z,3.03
2017-04-20T03:46:15.617Z,3.04
2017-04-20T03:46:56.212Z,3.07
2017-04-20T03:47:36.825Z,3.1
2017-04-20T03:48:17.415Z,3.07
2017-04-20T03:48:57.992Z,3.04
2017-04-20T03:49:38.596Z,3.03
2017-04-20T03:50:19.175Z,3.05
2017-04-20T03:50:59.786Z,3.08
2017-04-20T03:51:40.346Z,3.14
2017-04-20T03:52:20.998Z,3.11
2017-04-20T03:53:01.581Z,3.11
2017-04-20T03:53:42.166Z,3.14
2017-04-20T03:54:22.783Z,3.1
2017-04-20T03:55:03.365Z,3.11
2017-04-20T03:55:43.964Z,3.07
2017-04-20T03:56:24.570Z,3.18
2017-04-20T03:57:05.187Z,3.1
2017-04-20T03:57:45.780Z,3.05
2017-04-20T03:58:26.411Z,3.18
2017-04-20T03:59:06.975Z,3.21
2017-04-20T03:59:47.549Z,3.08
2017-04-20T04:00:28.140Z,3.18
2017-04-20T04:01:08.733Z,3.08
2017-04-20T04:01:49.318Z,3.14
2017-04-20T04:02:29.917Z,3.16
2017-04-20T04:03:10.550Z,3.16
2017-04-20T04:03:51.117Z,3.16
2017-04-20T04:04:31.690Z,3.08
2017-04-20T04:05:12.320Z,3.08
2017-04-20T04:05:52.900Z,3.16
2017-04-20T04:06:33.491Z,3.07
2017-04-20T04:07:14.106Z,3.13
2017-04-20T04:07:54.687Z,3.08
2017-04-20T04:08:35.286Z,3.11
2017-04-20T04:09:15.935Z,3.14
2017-04-20T04:09:56.487Z,3.07
2017-04-20T04:10:37.053Z,3.05
2017-04-20T04:11:17.648Z,3.13
2017-04-20T04:11:58.236Z,3.08
2017-04-20T04:12:38.835Z,3.1
2017-04-20T04:13:19.416Z,3.11
2017-04-20T04:13:59.975Z,3.07
2017-04-20T04:14:40.583Z,3.08
2017-04-20T04:15:21.175Z,3.05
2017-04-20T04:16:01.764Z,3.05
2017-04-20T04:16:42.375Z,3.18
2017-04-20T04:17:22.982Z,3.19
2017-04-20T04:18:03.561Z,3.11
2017-04-20T04:18:44.171Z,3.07
2017-04-20T04:19:24.833Z,3.05
2017-04-20T04:20:05.414Z,3.16
2017-04-20T04:20:46.092Z,3.21
2017-04-20T04:21:26.628Z,3.13
2017-04-20T04:22:07.335Z,3.18
2017-04-20T04:22:47.913Z,3.13
2017-04-20T04:23:28.516Z,3.14
2017-04-20T04:24:09.087Z,3.25
2017-04-20T04:24:49.676Z,3.19
2017-04-20T04:25:30.318Z,3.23
2017-04-20T04:26:10.934Z,3.21
2017-04-20T04:26:51.501Z,3.32
2017-04-20T04:27:32.126Z,3.28
2017-04-20T04:28:12.716Z,3.32
2017-04-20T04:28:53.322Z,3.28
2017-04-20T04:29:33.900Z,3.31
2017-04-20T04:30:14.512Z,3.31
2017-04-20T04:30:55.103Z,3.29
2017-04-20T04:31:35.697Z,3.4
2017-04-20T04:32:16.336Z,3.4
2017-04-20T04:32:56.974Z,3.36
2017-04-20T04:33:37.667Z,3.37
2017-04-20T04:34:18.239Z,3.32
2017-04-20T04:34:58.834Z,3.36
2017-04-20T04:35:39.451Z,3.37
2017-04-20T04:36:20.064Z,3.36
2017-04-20T04:37:00.671Z,3.4
2017-04-20T04:37:41.231Z,3.4
2017-04-20T04:38:21.825Z,3.42
2017-04-20T04:39:02.408Z,3.41
2017-04-20T04:39:42.986Z,3.42
2017-04-20T04:40:23.567Z,3.44
2017-04-20T04:41:04.142Z,3.42
2017-04-20T04:41:44.802Z,3.44
2017-04-20T04:42:25.363Z,3.4
2017-04-20T04:43:05.934Z,3.48
2017-04-20T04:43:46.520Z,3.47
2017-04-20T04:44:27.110Z,3.51
2017-04-20T04:45:07.704Z,3.47
2017-04-20T04:45:48.280Z,3.53
2017-04-20T04:46:28.857Z,3.48
2017-04-20T04:47:09.462Z,3.51
2017-04-20T04:47:50.054Z,3.56
2017-04-20T04:48:30.689Z,3.48
2017-04-20T04:49:11.315Z,3.56
2017-04-20T04:49:51.938Z,3.53
2017-04-20T04:50:32.481Z,3.44
2017-04-20T04:51:13.070Z,3.51
2017-04-20T04:51:53.711Z,3.53
2017-04-20T04:52:34.340Z,3.5
2017-04-20T04:53:14.930Z,3.5
2017-04-20T04:53:55.500Z,3.5
2017-04-20T04:54:36.066Z,3.55
2017-04-20T04:55:16.641Z,3.55
2017-04-20T04:55:57.265Z,3.6
2017-04-20T04:56:37.879Z,3.63
2017-04-20T04:57:18.490Z,3.6
2017-04-20T04:57:59.074Z,3.56
2017-04-20T04:58:39.660Z,3.65
2017-04-20T04:59:20.245Z,3.56
2017-04-20T05:00:00.830Z,3.59
2017-04-20T05:00:41.439Z,3.65
2017-04-20T05:01:22.044Z,3.58
2017-04-20T05:02:02.658Z,3.59
2017-04-20T05:02:43.234Z,3.62
2017-04-20T05:03:23.913Z,3.6
2017-04-20T05:04:04.483Z,3.62
2017-04-20T05:04:45.028Z,3.68
2017-04-20T05:05:25.614Z,3.65
2017-04-20T05:06:06.236Z,3.65
2017-04-20T05:06:46.844Z,3.69
2017-04-20T05:07:27.464Z,3.69
2017-04-20T05:08:08.135Z,3.77
2017-04-20T05:08:48.688Z,3.76
2017-04-20T05:09:29.285Z,3.73
2017-04-20T05:10:09.866Z,3.69
2017-04-20T05:10:50.644Z,3.78
2017-04-20T05:11:31.217Z,3.83
2017-04-20T05:12:11.808Z,3.8
2017-04-20T05:12:52.374Z,3.74
2017-04-20T05:13:32.978Z,3.76
2017-04-20T05:14:13.562Z,3.78
2017-04-20T05:14:54.174Z,3.81
2017-04-20T05:15:34.747Z,3.78
2017-04-20T05:16:15.320Z,3.8
2017-04-20T05:16:55.906Z,3.86
2017-04-20T05:17:36.511Z,3.86
2017-04-20T05:18:17.117Z,3.87
2017-04-20T05:18:57.722Z,3.86
2017-04-20T05:19:38.303Z,3.87
2017-04-20T05:20:18.935Z,3.84
2017-04-20T05:20:59.530Z,3.94
2017-04-20T05:21:40.131Z,3.91
2017-04-20T05:22:20.765Z,3.92
2017-04-20T05:23:01.354Z,3.92
2017-04-20T05:23:41.947Z,3.95
2017-04-20T05:24:22.566Z,3.99
2017-04-20T05:25:03.156Z,3.99
2017-04-20T05:25:43.737Z,3.94
2017-04-20T05:26:24.303Z,4.02
2017-04-20T05:27:04.865Z,4.01
2017-04-20T05:27:45.521Z,4.01
2017-04-20T05:28:26.142Z,4.1
2017-04-20T05:29:06.712Z,4.08
2017-04-20T05:29:47.317Z,4.05
2017-04-20T05:30:27.907Z,4.08
2017-04-20T05:31:08.529Z,4.06
2017-04-20T05:31:49.189Z,4.14
2017-04-20T05:32:29.958Z,4.23
2017-04-20T05:33:10.541Z,4.08
2017-04-20T05:33:51.163Z,4.13
2017-04-20T05:34:31.722Z,4.14
2017-04-20T05:35:12.299Z,4.19
2017-04-20T05:35:52.909Z,4.23
2017-04-20T05:36:33.472Z,4.19
2017-04-20T05:37:14.093Z,4.23
2017-04-20T05:37:54.676Z,4.22
2017-04-20T05:38:35.249Z,4.22
2017-04-20T05:39:15.928Z,4.24
2017-04-20T05:39:56.506Z,4.28
2017-04-20T05:40:37.074Z,4.28
2017-04-20T05:41:17.650Z,4.26
2017-04-20T05:41:58.250Z,4.23
2017-04-20T05:42:38.835Z,4.4
2017-04-20T05:43:19.411Z,4.6
2017-04-20T05:44:00.009Z,4.94
2017-04-20T05:44:40.596Z,5.21
2017-04-20T05:45:21.205Z,5.62
2017-04-20T05:46:02.027Z,5.93
2017-04-20T05:46:42.566Z,6.14
2017-04-20T05:47:23.151Z,6.46
2017-04-20T05:48:03.734Z,6.74
2017-04-20T05:48:44.363Z,6.93
2017-04-20T05:49:24.948Z,7.18
2017-04-20T05:50:05.524Z,7.33
2017-04-20T05:50:46.143Z,7.5
2017-04-20T05:51:26.731Z,7.75
2017-04-20T05:52:07.308Z,7.91
2017-04-20T05:52:47.919Z,8
2017-04-20T05:53:28.598Z,8.19
2017-04-20T05:54:09.181Z,8.28
2017-04-20T05:54:49.828Z,8.38
2017-04-20T05:55:30.433Z,8.49
2017-04-20T05:56:10.992Z,8.6
2017-04-20T05:56:51.583Z,8.73
2017-04-20T05:57:32.151Z,8.74
2017-04-20T05:58:12.741Z,8.85
2017-04-20T05:58:53.374Z,8.87
2017-04-20T05:59:33.953Z,8.87
2017-04-20T06:00:14.563Z,8.92
2017-04-20T06:00:55.249Z,8.87
2017-04-20T06:01:35.831Z,8.89
2017-04-20T06:02:16.422Z,8.89
2017-04-20T06:02:57.099Z,8.95
2017-04-20T06:03:37.697Z,9
2017-04-20T06:04:18.306Z,9.08
2017-04-20T06:04:58.873Z,9.16
2017-04-20T06:05:39.499Z,9.23
2017-04-20T06:06:20.091Z,9.28
2017-04-20T06:07:00.694Z,9.4
2017-04-20T06:07:41.251Z,9.48
2017-04-20T06:08:21.895Z,9.5
2017-04-20T06:09:02.586Z,9.62
2017-04-20T06:09:43.193Z,9.58
2017-04-20T06:10:23.847Z,9.68
2017-04-20T06:11:04.438Z,9.65
2017-04-20T06:11:45.188Z,9.54
2017-04-20T06:12:25.727Z,9.37
2017-04-20T06:13:06.292Z,9.08
2017-04-20T06:13:46.865Z,8.87
2017-04-20T06:14:27.458Z,8.7
2017-04-20T06:15:08.045Z,8.49
2017-04-20T06:15:48.626Z,8.36
2017-04-20T06:16:29.245Z,8.19
2017-04-20T06:17:09.797Z,8.01
2017-04-20T06:17:50.408Z,7.94
2017-04-20T06:18:31.044Z,7.76
2017-04-20T06:19:11.638Z,7.7
2017-04-20T06:19:52.231Z,7.6
2017-04-20T06:20:32.827Z,7.66
2017-04-20T06:21:13.421Z,7.47
2017-04-20T06:21:54.092Z,7.54
2017-04-20T06:22:34.672Z,7.5
2017-04-20T06:23:15.254Z,7.51
2017-04-20T06:23:55.854Z,7.54
2017-04-20T06:24:36.455Z,7.57
2017-04-20T06:25:17.134Z,7.43
2017-04-20T06:25:57.719Z,7.53
2017-04-20T06:26:38.329Z,7.48
2017-04-20T06:27:18.935Z,7.47
2017-04-20T06:27:59.587Z,7.39
2017-04-20T06:28:40.237Z,7.51
2017-04-20T06:29:20.819Z,7.57
2017-04-20T06:30:01.458Z,7.5
2017-04-20T06:30:42.031Z,7.61
2017-04-20T06:31:22.622Z,7.66
2017-04-20T06:32:03.252Z,7.73
2017-04-20T06:32:43.806Z,7.77
2017-04-20T06:33:24.409Z,7.97
2017-04-20T06:34:04.997Z,8
2017-04-20T06:34:45.581Z,8
2017-04-20T06:35:26.192Z,8.1
2017-04-20T06:36:06.813Z,8.2
2017-04-20T06:36:47.403Z,8.18
2017-04-20T06:37:28.011Z,8.36
2017-04-20T06:38:08.605Z,8.33
2017-04-20T06:38:49.202Z,8.51
2017-04-20T06:39:29.806Z,8.38
2017-04-20T06:40:10.457Z,8.49
2017-04-20T06:40:51.084Z,8.51
2017-04-20T06:41:31.743Z,8.6
2017-04-20T06:42:12.356Z,8.64
2017-04-20T06:42:53.001Z,8.74
2017-04-20T06:43:33.583Z,8.78
2017-04-20T06:44:14.208Z,8.88
2017-04-20T06:44:54.863Z,8.89
2017-04-20T06:45:35.449Z,8.89
2017-04-20T06:46:16.060Z,8.92
2017-04-20T06:46:56.675Z,9.14
2017-04-20T06:47:37.290Z,9.21
2017-04-20T06:48:17.930Z,9.26
2017-04-20T06:48:58.495Z,9.43
2017-04-20T06:49:39.086Z,9.46
2017-04-20T06:50:19.671Z,9.46
2017-04-20T06:51:00.341Z,9.51
2017-04-20T06:51:40.935Z,9.51
2017-04-20T06:52:21.576Z,9.5
2017-04-20T06:53:02.247Z,9.5
2017-04-20T06:53:43.028Z,9.48
2017-04-20T06:54:23.625Z,9.46
2017-04-20T06:55:04.248Z,9.59
2017-04-20T06:55:45.548Z,9.61
2017-04-20T06:56:26.461Z,9.69
2017-04-20T06:57:07.081Z,9.68
2017-04-20T06:57:47.697Z,9.74
2017-04-20T06:58:28.323Z,9.74
2017-04-20T06:59:08.940Z,9.79
2017-04-20T06:59:49.535Z,9.87
2017-04-20T07:00:30.148Z,9.8
2017-04-20T07:01:10.886Z,9.86
2017-04-20T07:01:51.715Z,9.98
2017-04-20T07:02:32.309Z,9.97
2017-04-20T07:03:12.963Z,10.04
2017-04-20T07:03:53.560Z,9.97
2017-04-20T07:04:34.167Z,10.04
2017-04-20T07:05:14.779Z,10.12
2017-04-20T07:05:55.379Z,10.07
2017-04-20T07:06:36.016Z,10.07
2017-04-20T07:07:16.593Z,10.15
2017-04-20T07:07:57.185Z,10.12
2017-04-20T07:08:38.443Z,10.1
2017-04-20T07:09:18.390Z,10.2
2017-04-20T07:09:58.991Z,10.23
2017-04-20T07:10:39.662Z,10.3
2017-04-20T07:11:20.273Z,10.34
2017-04-20T07:12:00.909Z,10.48
2017-04-20T07:12:41.498Z,10.6
2017-04-20T07:13:22.077Z,10.61
2017-04-20T07:14:02.662Z,10.6
2017-04-20T07:14:43.243Z,10.72
2017-04-20T07:15:23.822Z,10.78
2017-04-20T07:16:04.412Z,10.74
2017-04-20T07:16:45.021Z,10.79
2017-04-20T07:17:25.605Z,10.71
2017-04-20T07:18:06.195Z,10.71
2017-04-20T07:18:46.785Z,10.72
2017-04-20T07:19:27.396Z,10.71
2017-04-20T07:20:07.999Z,10.71
2017-04-20T07:20:48.727Z,10.71
2017-04-20T07:21:29.320Z,10.71
2017-04-20T07:22:09.928Z,10.71
2017-04-20T07:22:50.496Z,10.63
2017-04-20T07:23:31.112Z,10.57
2017-04-20T07:24:11.744Z,10.61
2017-04-20T07:24:52.320Z,10.72
2017-04-20T07:25:32.904Z,10.78
2017-04-20T07:26:13.541Z,10.79
2017-04-20T07:26:54.134Z,10.79
2017-04-20T07:27:34.718Z,10.89
2017-04-20T07:28:15.333Z,10.9
2017-04-20T07:28:55.917Z,10.94
2017-04-20T07:29:36.540Z,11.04
2017-04-20T07:30:17.116Z,11.12
2017-04-20T07:30:57.802Z,11.18
2017-04-20T07:31:38.404Z,11.17
2017-04-20T07:32:19.019Z,11.27
2017-04-20T07:32:59.635Z,11.32
2017-04-20T07:33:40.252Z,11.32
2017-04-20T07:34:20.877Z,11.27
2017-04-20T07:35:01.438Z,11.35
2017-04-20T07:35:42.033Z,11.33
2017-04-20T07:36:22.651Z,11.37
2017-04-20T07:37:03.280Z,11.33
2017-04-20T07:37:43.899Z,11.3
2017-04-20T07:38:24.514Z,11.22
2017-04-20T07:39:05.123Z,11.22
2017-04-20T07:39:45.714Z,11.22
2017-04-20T07:40:26.298Z,11.23
2017-04-20T07:41:06.894Z,11.29
2017-04-20T07:41:47.492Z,11.25
2017-04-20T07:42:28.099Z,11.33
2017-04-20T07:43:08.728Z,11.43
2017-04-20T07:43:49.332Z,11.48
2017-04-20T07:44:29.990Z,11.51
2017-04-20T07:45:10.578Z,11.63
2017-04-20T07:45:51.189Z,11.68
2017-04-20T07:46:32.142Z,11.69
2017-04-20T07:47:12.739Z,11.77
2017-04-20T07:47:53.339Z,11.7
2017-04-20T07:48:33.940Z,11.77
2017-04-20T07:49:14.528Z,11.62
2017-04-20T07:49:55.186Z,11.66
2017-04-20T07:50:35.793Z,11.55
2017-04-20T07:51:16.398Z,11.68
2017-04-20T07:51:57.009Z,11.65
2017-04-20T07:52:37.614Z,11.62
2017-04-20T07:53:18.229Z,11.54
2017-04-20T07:53:58.822Z,11.48
2017-04-20T07:54:39.470Z,11.5
2017-04-20T07:55:20.070Z,11.4
2017-04-20T07:56:00.683Z,11.55
2017-04-20T07:56:41.294Z,11.51
2017-04-20T07:57:21.898Z,11.55
2017-04-20T07:58:02.491Z,11.48
2017-04-20T07:58:43.117Z,11.51
2017-04-20T07:59:23.719Z,11.48
2017-04-20T08:00:04.320Z,11.54
2017-04-20T08:00:44.943Z,11.62
2017-04-20T08:01:25.542Z,11.51
2017-04-20T08:02:06.184Z,11.55
2017-04-20T08:02:46.768Z,11.63
2017-04-20T08:03:27.420Z,11.55
2017-04-20T08:04:08.020Z,11.54
2017-04-20T08:04:48.679Z,11.68
2017-04-20T08:05:29.332Z,11.75
2017-04-20T08:06:09.926Z,11.68
2017-04-20T08:06:50.514Z,11.66
2017-04-20T08:07:31.125Z,11.62
2017-04-20T08:08:11.719Z,11.68
2017-04-20T08:08:52.596Z,11.6
2017-04-20T08:09:33.184Z,11.48
2017-04-20T08:10:13.801Z,11.35
2017-04-20T08:10:54.430Z,11.32
2017-04-20T08:11:35.070Z,11.4
2017-04-20T08:12:15.650Z,11.33
2017-04-20T08:12:56.266Z,11.47
2017-04-20T08:13:36.837Z,11.54
2017-04-20T08:14:17.436Z,11.54
2017-04-20T08:14:58.026Z,11.51
2017-04-20T08:15:38.618Z,11.62
2017-04-20T08:16:19.247Z,11.63
2017-04-20T08:16:59.820Z,11.55
2017-04-20T08:17:40.390Z,11.63
2017-04-20T08:18:21.017Z,11.59
2017-04-20T08:19:01.635Z,11.52
2017-04-20T08:19:42.566Z,11.66
2017-04-20T08:20:23.259Z,11.8
2017-04-20T08:21:03.899Z,11.69
2017-04-20T08:21:44.496Z,11.73
2017-04-20T08:22:25.113Z,11.84
2017-04-20T08:23:05.753Z,11.84
2017-04-20T08:23:46.361Z,11.78
2017-04-20T08:24:26.958Z,11.91
2017-04-20T08:25:07.546Z,12.02
2017-04-20T08:25:48.161Z,12.12
2017-04-20T08:26:28.725Z,12.17
2017-04-20T08:27:09.357Z,12.25
2017-04-20T08:27:49.980Z,12.21
2017-04-20T08:28:30.611Z,12.25
2017-04-20T08:29:11.190Z,12.22
2017-04-20T08:29:51.785Z,12.13
2017-04-20T08:30:32.381Z,12.18
2017-04-20T08:31:13.007Z,12.12
2017-04-20T08:31:53.606Z,12.07
2017-04-20T08:32:34.237Z,12
2017-04-20T08:33:14.933Z,12
2017-04-20T08:33:55.516Z,11.88
2017-04-20T08:34:36.156Z,11.99
2017-04-20T08:35:16.751Z,11.78
2017-04-20T08:35:57.499Z,11.83
2017-04-20T08:36:38.087Z,11.86
2017-04-20T08:37:18.694Z,11.83
2017-04-20T08:37:59.373Z,11.87
2017-04-20T08:38:39.951Z,11.78
2017-04-20T08:39:20.542Z,11.78
2017-04-20T08:40:01.152Z,11.87
2017-04-20T08:40:41.757Z,11.95
2017-04-20T08:41:22.333Z,11.94
2017-04-20T08:42:02.944Z,11.94
2017-04-20T08:42:43.574Z,11.97
2017-04-20T08:43:24.272Z,12
2017-04-20T08:44:04.880Z,12
2017-04-20T08:44:45.466Z,11.97
2017-04-20T08:45:26.050Z,12.1
2017-04-20T08:46:06.655Z,12.06
2017-04-20T08:46:47.280Z,12.12
2017-04-20T08:47:27.886Z,12.18
2017-04-20T08:48:08.475Z,12.2
2017-04-20T08:48:49.080Z,12.24
2017-04-20T08:49:29.696Z,12.13
2017-04-20T08:50:10.302Z,12.21
2017-04-20T08:50:50.882Z,12.18
2017-04-20T08:51:31.466Z,12.32
2017-04-20T08:52:12.129Z,12.28
2017-04-20T08:52:52.742Z,12.31
2017-04-20T08:53:33.394Z,12.32
2017-04-20T08:54:14.017Z,12.31
2017-04-20T08:54:54.613Z,12.31
2017-04-20T08:55:35.246Z,12.31
2017-04-20T08:56:15.846Z,12.2
2017-04-20T08:56:56.452Z,12.28
2017-04-20T08:57:37.102Z,12.1
2017-04-20T08:58:17.769Z,12.13
2017-04-20T08:58:58.348Z,12.25